Clarence, Missouri
Current Conditions -  °F | °C
As of 5:55 AM on Wednesday 28 Jan 2015 (Local Time) from KIRK Reporting Station
Haze Haze  
Wind Chill: 19°   Ceiling: Unl
Heat Index: 28°   Visibility: 5mi
Dew Point: 27°   Wind: 10mph
Humidity: 96%   Direction: 110°ESE
Pressure: 30.09"   Gusts: NA
Location:  39.74°N, 92.26°W
Report Text: KIRK 281155Z AUTO 11009KT 5SM BR CLR M02/M03 A3009 RMK AO2 SLP200 T10221028 11017 21022 56016
Loading
Personal Weather Stations






























Interactive Weather Map New forecast layout! Learn more

10-Day Weather Forecast

Advertisements
Track Severe Weather on mobile